Humidity-temperature Sensor

Selected Measurement Type: Relative Humidity

 
Relative Humidity [%]     6 entries per hour
Showing data from 9/22/2017 (00:00:00 Z) to 9/15/2017 (00:01:00 Z)
Previous Next [ Day | 3-Days | 7-Days ]
First Last
Prev [ Day | 3-Days | 7-Days ] Next
First Last

Start Time:     :
End Time:     :     
Time (in GMT) :00 :50 :40 :30 :20 :10
Previous Next [ Day | 3-Days | 7-Days ]
First Last
Prev [ Day | 3-Days | 7-Days ] Next
First Last


123 => good data
MM => data is determined as missing
-- => data not received/configured
Back to Top Back to Top
9/22/2017 00:00 to 23:10 84.60 84.39 82.22 80.89 79.32 79.23
9/21/2017 23:00 to 22:10 76.54 81.18 87.06 79.30 79.50 77.68
9/21/2017 22:00 to 21:10 77.80 77.68 78.38 77.43 76.21 77.29
9/21/2017 21:00 to 20:10 77.72 75.71 75.42 76.67 76.42 76.17
9/21/2017 20:00 to 19:10 75.36 77.27 76.96 76.00 76.13 76.96
9/21/2017 19:00 to 18:10 77.64 75.71 74.61 76.60 75.96 75.77
9/21/2017 18:00 to 17:10 75.80 75.63 76.58 77.85 78.32 78.74
9/21/2017 17:00 to 16:10 77.78 76.27 77.31 76.35 74.74 77.14
9/21/2017 16:00 to 15:10 75.15 73.87 76.50 76.89 77.41 77.31
9/21/2017 15:00 to 14:10 77.54 78.59 77.33 76.73 76.89 77.51
9/21/2017 14:00 to 13:10 77.66 77.74 78.18 75.88 76.29 77.04
9/21/2017 13:00 to 12:10 79.50 78.65 76.81 78.82 78.01 78.05
9/21/2017 12:00 to 11:10 79.59 79.01 79.46 77.27 79.09 78.96
9/21/2017 11:00 to 10:10 77.64 78.61 80.39 77.08 77.58 75.90
9/21/2017 10:00 to 9:10 77.47 78.78 79.34 77.87 77.27 77.18
9/21/2017 09:00 to 8:10 77.04 77.22 76.11 76.73 78.76 78.09
9/21/2017 08:00 to 7:10 79.36 78.18 77.16 77.66 75.01 76.40
9/21/2017 07:00 to 6:10 78.32 79.96 79.11 79.15 79.36 79.32
9/21/2017 06:00 to 5:10 78.59 79.81 79.44 80.52 78.26 77.16
9/21/2017 05:00 to 4:10 79.40 76.58 75.73 76.62 75.57 75.88
9/21/2017 04:00 to 3:10 76.83 74.74 77.14 76.17 76.23 75.34
9/21/2017 03:00 to 2:10 75.71 75.11 76.17 75.92 76.67 76.83
9/21/2017 02:00 to 1:10 77.85 78.09 78.78 77.31 79.69 82.09
9/21/2017 01:00 to 0:10 85.30 82.69 79.81 80.19 80.97 80.70
9/21/2017 00:00 to 23:10 80.54 80.02 82.73 82.03 78.92 78.36
9/20/2017 23:00 to 22:10 78.88 78.70 80.06 80.41 80.27 79.03
9/20/2017 22:00 to 21:10 78.57 80.02 80.15 80.41 79.30 79.38
9/20/2017 21:00 to 20:10 80.83 75.82 77.41 77.97 83.21 82.65
9/20/2017 20:00 to 19:10 83.98 83.54 84.52 85.10 79.90 78.22
9/20/2017 19:00 to 18:10 77.78 80.46 80.15 81.24 80.95 79.98
9/20/2017 18:00 to 17:10 81.66 81.28 80.08 80.93 80.91 80.12
9/20/2017 17:00 to 16:10 80.19 80.97 81.80 80.44 80.04 79.42
9/20/2017 16:00 to 15:10 78.32 79.36 79.30 79.03 78.14 79.19
9/20/2017 15:00 to 14:10 80.52 81.06 81.22 79.32 79.03 78.65
9/20/2017 14:00 to 13:10 75.86 77.10 79.77 79.17 82.11 81.62
9/20/2017 13:00 to 12:10 82.94 81.55 82.53 79.92 78.51 77.68
9/20/2017 12:00 to 11:10 77.83 78.47 76.31 77.06 78.16 76.56
9/20/2017 11:00 to 10:10 77.85 77.70 77.25 78.41 77.64 76.67
9/20/2017 10:00 to 9:10 76.85 75.92 75.65 76.17 74.99 76.17
9/20/2017 09:00 to 8:10 74.61 75.22 75.57 75.69 78.55 78.05
9/20/2017 08:00 to 7:10 76.83 79.32 79.19 81.95 79.36 78.72
9/20/2017 07:00 to 6:10 78.59 79.81 78.43 79.34 78.57 80.12
9/20/2017 06:00 to 5:10 78.55 78.24 78.38 78.86 82.57 82.65
9/20/2017 05:00 to 4:10 85.12 85.24 85.61 83.11 83.96 83.83
9/20/2017 04:00 to 3:10 77.78 79.01 78.07 81.76 84.31 81.84
9/20/2017 03:00 to 2:10 84.93 85.12 87.19 88.02 80.25 78.22
9/20/2017 02:00 to 1:10 78.65 78.74 80.08 81.39 83.34 83.23
9/20/2017 01:00 to 0:10 82.20 83.98 82.20 82.53 81.91 82.94
9/20/2017 00:00 to 23:10 83.65 84.66 85.34 84.39 82.73 83.07
9/19/2017 23:00 to 22:10 82.88 83.02 83.21 82.73 83.50 82.65
9/19/2017 22:00 to 21:10 82.28 82.86 82.88 83.56 83.42 83.67
9/19/2017 21:00 to 20:10 83.44 83.11 82.53 83.58 84.29 84.45
9/19/2017 20:00 to 19:10 84.10 84.41 84.27 84.21 84.21 84.93
9/19/2017 19:00 to 18:10 84.97 84.99 84.27 84.47 85.45 84.91
9/19/2017 18:00 to 17:10 85.43 84.62 85.66 85.63 85.08 84.99
9/19/2017 17:00 to 16:10 85.37 85.18 85.68 86.96 86.86 87.06
9/19/2017 16:00 to 15:10 87.11 87.13 84.33 83.92 83.63 84.41
9/19/2017 15:00 to 14:10 83.29 83.52 82.80 83.25 83.58 83.63
9/19/2017 14:00 to 13:10 83.36 82.55 82.76 82.98 83.81 84.25
9/19/2017 13:00 to 12:10 84.29 83.81 83.96 85.37 86.09 84.45
9/19/2017 12:00 to 11:10 84.87 84.18 85.55 85.99 85.68 86.48
9/19/2017 11:00 to 10:10 86.96 87.54 89.47 89.57 90.46 88.76
9/19/2017 10:00 to 9:10 89.59 90.23 91.46 95.68 96.90 94.34
9/19/2017 09:00 to 8:10 93.98 96.57 97.53 98.23 99.00 98.77
9/19/2017 08:00 to 7:10 99.14 99.68 -- 99.43 97.46 97.36
9/19/2017 07:00 to 6:10 97.50 95.99 90.19 90.15 90.15 89.24
9/19/2017 06:00 to 5:10 89.92 88.08 90.05 89.07 91.83 89.94
9/19/2017 05:00 to 4:10 88.70 88.02 88.45 78.74 80.68 79.48
9/19/2017 04:00 to 3:10 79.50 76.19 78.84 77.54 77.10 80.00
9/19/2017 03:00 to 2:10 78.55 81.97 82.40 80.81 78.55 78.12
9/19/2017 02:00 to 1:10 78.14 78.57 79.83 77.68 78.28 78.80
9/19/2017 01:00 to 0:10 80.35 82.20 81.14 81.82 82.51 82.40
9/19/2017 00:00 to 23:10 84.31 84.31 82.63 81.39 80.44 79.48
9/18/2017 23:00 to 22:10 79.28 78.86 81.78 80.12 81.24 83.21
9/18/2017 22:00 to 21:10 87.56 88.85 90.46 90.88 91.75 93.67
9/18/2017 21:00 to 20:10 85.16 85.39 83.02 81.86 82.44 80.75
9/18/2017 20:00 to 19:10 80.73 80.52 81.66 80.04 81.06 83.34
9/18/2017 19:00 to 18:10 81.60 84.64 87.31 86.82 88.85 90.19
9/18/2017 18:00 to 17:10 90.23 91.48 89.53 90.42 92.72 89.76
9/18/2017 17:00 to 16:10 90.09 91.52 92.89 93.92 94.13 94.00
9/18/2017 16:00 to 15:10 92.39 85.30 88.18 86.61 92.10 89.70
9/18/2017 15:00 to 14:10 89.70 89.49 91.85 93.69 96.86 97.28
9/18/2017 14:00 to 13:10 98.33 -- -- -- -- --
9/18/2017 13:00 to 12:10 -- -- -- 95.12 81.97 81.10
9/18/2017 12:00 to 11:10 81.70 81.26 80.64 81.72 80.79 82.26
9/18/2017 11:00 to 10:10 82.28 81.66 81.18 80.15 82.09 83.58
9/18/2017 10:00 to 9:10 82.88 82.24 82.05 84.35 85.61 83.60
9/18/2017 09:00 to 8:10 81.74 83.69 82.67 84.66 85.49 85.26
9/18/2017 08:00 to 7:10 83.60 83.25 84.31 83.11 81.22 82.65
9/18/2017 07:00 to 6:10 83.58 84.41 84.45 85.16 85.82 86.50
9/18/2017 06:00 to 5:10 86.50 86.11 86.17 87.60 88.16 84.27
9/18/2017 05:00 to 4:10 81.04 71.88 73.97 74.34 75.75 75.15
9/18/2017 04:00 to 3:10 75.13 73.70 75.32 74.66 71.71 73.27
9/18/2017 03:00 to 2:10 73.18 76.44 76.44 77.62 77.47 77.20
9/18/2017 02:00 to 1:10 76.31 77.16 77.87 79.40 79.54 80.39
9/18/2017 01:00 to 0:10 79.59 79.98 81.31 81.86 83.54 84.85
9/18/2017 00:00 to 23:10 84.83 85.43 85.18 83.89 84.70 83.71
9/17/2017 23:00 to 22:10 84.89 85.82 87.02 88.64 89.96 91.29
9/17/2017 22:00 to 21:10 91.52 93.71 95.23 95.79 96.34 97.03
9/17/2017 21:00 to 20:10 96.78 96.24 94.98 89.07 86.42 86.42
9/17/2017 20:00 to 19:10 87.19 87.67 86.84 85.14 81.62 86.53
9/17/2017 19:00 to 18:10 88.49 85.66 83.05 82.92 82.24 83.17
9/17/2017 18:00 to 17:10 81.28 80.85 80.77 80.95 81.97 86.07
9/17/2017 17:00 to 16:10 86.96 87.38 86.94 85.24 83.52 86.42
9/17/2017 16:00 to 15:10 87.89 91.10 90.79 87.58 91.77 92.39
9/17/2017 15:00 to 14:10 92.26 81.31 77.76 77.87 78.88 78.14
9/17/2017 14:00 to 13:10 76.81 77.89 77.95 78.74 78.99 79.65
9/17/2017 13:00 to 12:10 80.48 80.46 78.96 79.61 79.05 78.20
9/17/2017 12:00 to 11:10 79.19 78.30 78.74 78.92 78.05 77.70
9/17/2017 11:00 to 10:10 76.96 80.75 79.75 78.74 78.28 79.61
9/17/2017 10:00 to 9:10 79.30 80.08 80.04 80.08 80.35 79.75
9/17/2017 09:00 to 8:10 79.61 80.39 79.50 80.50 80.79 79.32
9/17/2017 08:00 to 7:10 78.05 77.68 77.14 76.64 78.30 75.34
9/17/2017 07:00 to 6:10 77.20 77.25 77.49 76.23 77.62 78.84
9/17/2017 06:00 to 5:10 -- -- -- -- -- --
9/17/2017 05:00 to 4:10 78.26 77.80 77.62 79.01 81.84 82.26
9/17/2017 04:00 to 3:10 80.75 81.35 83.25 81.72 80.73 81.62
9/17/2017 03:00 to 2:10 81.78 77.49 76.62 78.90 81.31 82.20
9/17/2017 02:00 to 1:10 83.09 81.53 84.16 85.41 86.15 86.03
9/17/2017 01:00 to 0:10 84.99 84.95 83.21 84.25 83.07 84.72
9/17/2017 00:00 to 23:10 85.39 86.26 88.76 89.82 88.02 87.42
9/16/2017 23:00 to 22:10 86.67 88.72 87.77 87.38 89.12 86.63
9/16/2017 22:00 to 21:10 94.40 92.24 92.06 91.17 90.44 88.14
9/16/2017 21:00 to 20:10 91.27 87.42 89.45 88.51 91.70 91.99
9/16/2017 20:00 to 19:10 91.56 91.54 92.55 90.07 91.81 88.25
9/16/2017 19:00 to 18:10 88.49 89.74 89.88 91.35 85.66 89.94
9/16/2017 18:00 to 17:10 90.92 91.00 91.91 94.07 94.21 96.05
9/16/2017 17:00 to 16:10 96.03 97.38 98.19 98.25 98.42 98.81
9/16/2017 16:00 to 15:10 98.62 98.04 93.61 88.08 87.77 87.81
9/16/2017 15:00 to 14:10 86.96 88.51 88.76 90.03 87.31 87.27
9/16/2017 14:00 to 13:10 88.80 88.87 88.72 88.39 88.18 88.45
9/16/2017 13:00 to 12:10 88.83 88.47 87.00 86.88 87.21 86.71
9/16/2017 12:00 to 11:10 86.71 87.81 87.54 88.35 88.16 85.55
9/16/2017 11:00 to 10:10 84.99 84.29 83.87 83.52 86.32 86.38
9/16/2017 10:00 to 9:10 86.28 86.05 86.44 85.16 86.05 87.27
9/16/2017 09:00 to 8:10 86.61 86.15 84.54 82.65 85.80 86.30
9/16/2017 08:00 to 7:10 80.06 79.63 79.48 79.75 79.90 80.23
9/16/2017 07:00 to 6:10 80.25 79.75 80.54 81.39 81.72 82.11
9/16/2017 06:00 to 5:10 81.68 82.53 82.28 83.67 84.83 85.59
9/16/2017 05:00 to 4:10 85.68 86.28 86.63 87.00 88.10 88.97
9/16/2017 04:00 to 3:10 90.03 89.14 90.50 86.92 90.71 89.18
9/16/2017 03:00 to 2:10 86.55 87.62 86.07 84.97 85.53 85.74
9/16/2017 02:00 to 1:10 84.68 85.84 84.50 84.23 74.86 74.20
9/16/2017 01:00 to 0:10 74.30 74.18 73.85 72.89 71.84 73.04
9/16/2017 00:00 to 23:10 72.40 71.44 71.47 70.70 72.02 72.63
9/15/2017 23:00 to 22:10 72.54 73.70 73.70 74.84 74.18 74.55
9/15/2017 22:00 to 21:10 74.76 73.85 74.68 74.78 75.01 75.09
9/15/2017 21:00 to 20:10 75.13 75.01 74.47 74.99 73.64 74.14
9/15/2017 20:00 to 19:10 74.41 75.46 75.15 74.30 74.39 75.13
9/15/2017 19:00 to 18:10 75.94 75.36 75.59 74.76 74.92 75.42
9/15/2017 18:00 to 17:10 76.09 76.46 78.53 77.66 76.02 76.98
9/15/2017 17:00 to 16:10 76.81 76.33 77.35 76.23 75.80 76.46
9/15/2017 16:00 to 15:10 76.62 75.77 76.77 77.37 78.41 80.12
9/15/2017 15:00 to 14:10 79.40 80.12 79.23 80.85 80.44 80.08
9/15/2017 14:00 to 13:10 80.19 74.14 75.32 74.45 74.82 74.24
9/15/2017 13:00 to 12:10 74.59 74.51 74.68 75.32 75.88 74.80
9/15/2017 12:00 to 11:10 74.99 76.13 76.50 77.22 77.54 76.79
9/15/2017 11:00 to 10:10 77.76 79.67 78.45 78.05 71.42 70.72
9/15/2017 10:00 to 9:10 74.39 72.02 71.84 70.78 71.32 69.99
9/15/2017 09:00 to 8:10 70.37 70.28 67.05 66.87 66.39 64.59
9/15/2017 08:00 to 7:10 69.27 67.28 67.05 66.72 67.32 65.42
9/15/2017 07:00 to 6:10 64.94 68.79 66.97 65.38 66.12 67.09
9/15/2017 06:00 to 5:10 67.07 66.49 66.64 66.37 66.91 65.27
9/15/2017 05:00 to 4:10 63.82 62.91 63.12 61.94 61.60 60.76
9/15/2017 04:00 to 3:10 61.36 65.02 65.31 64.80 62.91 65.44
9/15/2017 03:00 to 2:10 65.35 65.85 67.86 65.48 67.99 68.25
9/15/2017 02:00 to 1:10 67.36 67.28 67.38 67.55 67.16 66.14
9/15/2017 01:00 to 0:10 66.56 69.33 69.23 68.54 69.19 68.71